createdAt,value
2023-04-18T00:01:23.783Z,12.33
2023-04-18T00:03:50.989Z,9.40
2023-04-18T00:06:17.919Z,8.67
2023-04-18T00:08:44.375Z,10.60
2023-04-18T00:11:10.824Z,11.90
2023-04-18T00:13:38.449Z,13.43
2023-04-18T00:16:05.962Z,7.93
2023-04-18T00:18:32.942Z,8.70
2023-04-18T00:20:59.418Z,8.80
2023-04-18T00:23:27.994Z,11.80
2023-04-18T00:25:54.503Z,11.90
2023-04-18T00:28:20.998Z,10.27
2023-04-18T00:30:48.946Z,10.40
2023-04-18T00:33:15.722Z,11.30
2023-04-18T00:35:42.206Z,12.93
2023-04-18T00:38:08.769Z,10.50
2023-04-18T00:40:35.514Z,10.20
2023-04-18T00:43:02.644Z,8.97
2023-04-18T00:45:29.145Z,10.57
2023-04-18T00:47:56.719Z,15.33
2023-04-18T00:50:23.944Z,12.07
2023-04-18T00:52:50.910Z,10.97
2023-04-18T00:55:18.384Z,13.00
2023-04-18T00:57:44.830Z,11.13
2023-04-18T01:00:12.340Z,12.27
2023-04-18T01:02:39.959Z,23.37
2023-04-18T01:05:07.881Z,13.87
2023-04-18T01:07:37.289Z,14.37
2023-04-18T01:10:04.385Z,12.57
2023-04-18T01:12:31.270Z,14.77
2023-04-18T01:15:00.552Z,13.90
2023-04-18T01:17:29.663Z,14.07
2023-04-18T01:19:56.835Z,14.27
2023-04-18T01:22:23.690Z,11.37
2023-04-18T01:24:50.223Z,12.33
2023-04-18T01:27:16.893Z,14.93
2023-04-18T01:29:43.348Z,13.83
2023-04-18T01:32:09.816Z,16.53
2023-04-18T01:34:36.761Z,16.53
2023-04-18T01:37:05.676Z,12.40
2023-04-18T01:39:32.803Z,14.43
2023-04-18T01:42:01.281Z,11.30
2023-04-18T01:44:27.769Z,12.60
2023-04-18T01:46:54.297Z,14.63
2023-04-18T01:49:20.829Z,12.30
2023-04-18T01:51:49.336Z,12.90
2023-04-18T01:54:16.384Z,12.83
2023-04-18T01:56:43.085Z,11.80
2023-04-18T01:59:09.909Z,16.90
2023-04-18T02:01:36.781Z,14.40
2023-04-18T02:04:03.282Z,13.40
2023-04-18T02:06:29.804Z,23.83
2023-04-18T02:08:56.287Z,15.13
2023-04-18T02:11:24.778Z,15.77
2023-04-18T02:13:52.367Z,16.97
2023-04-18T02:16:18.866Z,15.10
2023-04-18T02:18:45.421Z,16.37
2023-04-18T02:21:13.439Z,14.40
2023-04-18T02:23:39.888Z,16.40
2023-04-18T02:26:06.516Z,13.40
2023-04-18T02:28:33.037Z,18.80
2023-04-18T02:31:02.932Z,12.53
2023-04-18T02:33:29.392Z,14.30
2023-04-18T02:35:56.041Z,14.03
2023-04-18T02:38:22.536Z,16.00
2023-04-18T02:40:51.740Z,14.27
2023-04-18T02:43:18.229Z,17.07
2023-04-18T02:45:44.794Z,14.80
2023-04-18T02:48:11.363Z,15.17
2023-04-18T02:50:37.872Z,15.73
2023-04-18T02:53:04.438Z,15.97
2023-04-18T02:55:43.299Z,19.03
2023-04-18T02:58:09.988Z,20.33
2023-04-18T03:00:36.541Z,17.53
2023-04-18T03:03:41.288Z,18.73
2023-04-18T03:06:21.790Z,17.43
2023-04-18T03:08:48.493Z,18.47
2023-04-18T03:11:15.347Z,16.23
2023-04-18T03:13:41.937Z,16.80
2023-04-18T03:16:08.431Z,15.53
2023-04-18T03:18:35.138Z,19.40
2023-04-18T03:21:02.220Z,20.80
2023-04-18T03:23:30.751Z,18.27
2023-04-18T03:25:58.547Z,15.70
2023-04-18T03:28:26.026Z,15.17
2023-04-18T03:30:53.398Z,20.37
2023-04-18T03:33:20.024Z,15.60
2023-04-18T03:35:48.945Z,16.13
2023-04-18T03:38:15.490Z,13.93
2023-04-18T03:40:44.421Z,17.17
2023-04-18T03:43:20.406Z,16.20
2023-04-18T03:45:47.529Z,18.03
2023-04-18T03:48:16.200Z,16.10
2023-04-18T03:50:44.848Z,18.37
2023-04-18T03:53:11.413Z,16.63
2023-04-18T03:55:38.995Z,15.40
2023-04-18T03:58:05.681Z,14.53
2023-04-18T04:00:32.235Z,15.70
2023-04-18T04:03:04.483Z,17.27
2023-04-18T04:05:31.076Z,17.33
2023-04-18T04:07:57.862Z,22.30
2023-04-18T04:10:24.461Z,14.23
2023-04-18T04:12:51.406Z,15.07
2023-04-18T04:15:18.314Z,16.90
2023-04-18T04:17:51.183Z,18.50
2023-04-18T04:20:23.987Z,15.70
2023-04-18T04:22:56.860Z,18.37
2023-04-18T04:25:29.785Z,16.50
2023-04-18T04:28:01.390Z,17.93
2023-04-18T04:30:28.666Z,16.53
2023-04-18T04:32:56.233Z,15.20
2023-04-18T04:35:22.775Z,19.53
2023-04-18T04:37:50.633Z,14.83
2023-04-18T04:40:29.749Z,18.93
2023-04-18T04:43:04.680Z,18.27
2023-04-18T04:45:36.270Z,17.80
2023-04-18T04:48:02.896Z,15.20
2023-04-18T04:50:29.385Z,18.43
2023-04-18T04:52:55.950Z,19.17
2023-04-18T04:55:22.563Z,19.77
2023-04-18T04:57:49.762Z,14.23
2023-04-18T05:00:29.820Z,18.90
2023-04-18T05:02:57.486Z,18.53
2023-04-18T05:05:25.696Z,19.20
2023-04-18T05:07:52.260Z,17.27
2023-04-18T05:10:18.839Z,18.87
2023-04-18T05:12:45.358Z,20.33
2023-04-18T05:15:12.588Z,15.80
2023-04-18T05:17:39.097Z,17.27
2023-04-18T05:20:06.341Z,17.37
2023-04-18T05:22:32.862Z,16.27
2023-04-18T05:24:59.300Z,17.80
2023-04-18T05:27:26.236Z,16.77
2023-04-18T05:29:52.719Z,17.60
2023-04-18T05:32:19.623Z,19.60
2023-04-18T05:34:46.861Z,17.30
2023-04-18T05:37:13.329Z,18.77
2023-04-18T05:39:40.322Z,16.37
2023-04-18T05:42:06.975Z,17.20
2023-04-18T05:44:33.526Z,14.00
2023-04-18T05:47:00.013Z,14.57
2023-04-18T05:49:26.444Z,21.53
2023-04-18T05:51:53.116Z,15.97
2023-04-18T05:54:21.449Z,11.47
2023-04-18T05:56:48.240Z,16.70
2023-04-18T05:59:14.743Z,14.90
2023-04-18T06:01:41.220Z,14.00
2023-04-18T06:04:08.624Z,13.20
2023-04-18T06:06:36.331Z,16.53
2023-04-18T06:09:03.035Z,16.57
2023-04-18T06:11:29.688Z,19.23
2023-04-18T06:13:56.094Z,15.80
2023-04-18T06:16:22.706Z,14.57
2023-04-18T06:18:49.304Z,16.10
2023-04-18T06:21:15.780Z,14.60
2023-04-18T06:23:42.262Z,15.40
2023-04-18T06:26:09.307Z,21.30
2023-04-18T06:28:35.835Z,22.70
2023-04-18T06:31:02.581Z,14.43
2023-04-18T06:33:29.076Z,12.90
2023-04-18T06:35:55.747Z,15.23
2023-04-18T06:38:22.438Z,17.93
2023-04-18T06:40:48.891Z,19.30
2023-04-18T06:43:15.446Z,13.60
2023-04-18T06:45:42.037Z,13.07
2023-04-18T06:48:10.587Z,13.93
2023-04-18T06:50:37.311Z,12.43
2023-04-18T06:53:03.825Z,17.43
2023-04-18T06:55:30.616Z,14.60
2023-04-18T06:57:57.173Z,14.67
2023-04-18T07:00:23.752Z,13.40
2023-04-18T07:02:50.448Z,13.20
2023-04-18T07:05:17.034Z,12.67
2023-04-18T07:07:43.580Z,13.60
2023-04-18T07:10:11.265Z,18.37
2023-04-18T07:12:37.710Z,11.57
2023-04-18T07:15:04.817Z,13.97
2023-04-18T07:17:31.647Z,10.67
2023-04-18T07:19:58.481Z,7.90
2023-04-18T07:22:24.925Z,11.63
2023-04-18T07:24:51.386Z,7.57
2023-04-18T07:27:17.810Z,5.20
2023-04-18T07:29:44.272Z,6.03
2023-04-18T07:32:10.818Z,4.33
2023-04-18T07:34:37.484Z,5.60
2023-04-18T07:37:04.061Z,5.53
2023-04-18T07:39:35.646Z,3.73
2023-04-18T07:42:03.828Z,8.30
2023-04-18T07:44:30.265Z,5.20
2023-04-18T07:46:57.252Z,6.30
2023-04-18T07:49:23.788Z,6.40
2023-04-18T07:51:50.259Z,5.53
2023-04-18T07:54:16.738Z,6.30
2023-04-18T07:56:43.300Z,5.93
2023-04-18T07:59:09.793Z,6.83
2023-04-18T08:01:36.254Z,5.10
2023-04-18T08:04:02.807Z,8.43
2023-04-18T08:06:29.561Z,6.03
2023-04-18T08:08:56.054Z,5.80
2023-04-18T08:11:22.555Z,6.33
2023-04-18T08:13:49.055Z,7.13
2023-04-18T08:16:17.536Z,7.07
2023-04-18T08:18:44.214Z,5.97
2023-04-18T08:21:10.731Z,5.00
2023-04-18T08:23:37.840Z,6.33
2023-04-18T08:26:04.433Z,4.63
2023-04-18T08:28:30.939Z,5.50
2023-04-18T08:30:57.509Z,5.70
2023-04-18T08:33:24.520Z,4.70
2023-04-18T08:35:51.577Z,4.30
2023-04-18T08:38:18.571Z,4.70
2023-04-18T08:40:45.405Z,7.03
2023-04-18T08:43:14.721Z,6.60
2023-04-18T08:45:45.153Z,4.97
2023-04-18T08:48:13.734Z,4.33
2023-04-18T08:50:41.369Z,5.50
2023-04-18T08:53:08.270Z,5.40
2023-04-18T08:55:35.521Z,6.13
2023-04-18T08:58:03.249Z,4.73
2023-04-18T09:00:30.434Z,5.37
2023-04-18T09:02:57.623Z,7.17
2023-04-18T09:05:26.679Z,4.87
2023-04-18T09:07:54.577Z,5.77
2023-04-18T09:10:30.131Z,5.90
2023-04-18T09:12:58.066Z,5.90
2023-04-18T09:15:27.095Z,4.47
2023-04-18T09:17:56.223Z,5.63
2023-04-18T09:20:41.003Z,6.10
2023-04-18T09:23:14.657Z,5.87
2023-04-18T09:25:43.276Z,5.90
2023-04-18T09:28:31.160Z,5.80
2023-04-18T09:31:09.551Z,5.17
2023-04-18T09:33:37.020Z,7.10
2023-04-18T09:36:16.857Z,5.70
2023-04-18T09:38:43.359Z,5.47
2023-04-18T09:41:11.552Z,7.57
2023-04-18T09:43:38.355Z,6.73
2023-04-18T09:46:05.234Z,6.13
2023-04-18T09:48:32.010Z,5.17
2023-04-18T09:51:01.424Z,6.30
2023-04-18T09:53:28.362Z,8.03
2023-04-18T09:55:57.689Z,5.40
2023-04-18T09:58:25.941Z,5.60
2023-04-18T10:00:53.724Z,4.80
2023-04-18T10:03:23.974Z,4.47
2023-04-18T10:05:51.021Z,5.07
2023-04-18T10:08:17.946Z,5.87
2023-04-18T10:10:44.456Z,5.47
2023-04-18T10:13:11.838Z,3.97
2023-04-18T10:15:38.691Z,4.40
2023-04-18T10:18:15.677Z,5.13
2023-04-18T10:20:42.327Z,5.80
2023-04-18T10:23:36.753Z,4.40
2023-04-18T10:26:04.525Z,4.60
2023-04-18T10:28:57.160Z,4.53
2023-04-18T10:31:28.578Z,4.57
2023-04-18T10:36:28.953Z,6.00
2023-04-18T10:39:00.376Z,3.47
2023-04-18T10:41:28.768Z,4.50
2023-04-18T10:44:11.281Z,4.00
2023-04-18T10:47:03.834Z,5.73
2023-04-18T10:49:33.903Z,6.97
2023-04-18T10:52:01.625Z,5.03
2023-04-18T10:54:47.647Z,5.67
2023-04-18T10:57:15.245Z,5.00
2023-04-18T10:59:43.760Z,5.20
2023-04-18T11:02:30.041Z,4.00
2023-04-18T11:04:58.199Z,4.83
2023-04-18T11:07:37.683Z,5.20
2023-04-18T11:10:05.327Z,3.83
2023-04-18T11:12:35.387Z,4.83
2023-04-18T11:15:09.350Z,4.53
2023-04-18T11:17:36.069Z,3.60
2023-04-18T11:20:14.597Z,4.43
2023-04-18T11:22:49.150Z,3.60
2023-04-18T11:25:16.756Z,3.20
2023-04-18T11:27:44.930Z,4.03
2023-04-18T11:30:13.134Z,3.50
2023-04-18T11:32:39.917Z,4.00
2023-04-18T11:35:11.009Z,2.80
2023-04-18T11:37:38.769Z,3.30
2023-04-18T11:40:08.900Z,4.13
2023-04-18T11:42:37.136Z,4.00
2023-04-18T11:45:03.915Z,3.87
2023-04-18T11:47:33.945Z,2.47
2023-04-18T11:50:05.261Z,3.90
2023-04-18T11:52:32.521Z,3.47
2023-04-18T11:55:21.261Z,3.20
2023-04-18T11:57:58.501Z,2.70
2023-04-18T12:00:37.266Z,2.50
2023-04-18T12:03:05.322Z,2.57
2023-04-18T12:05:34.218Z,2.23
2023-04-18T12:08:13.303Z,1.90
2023-04-18T12:10:48.141Z,2.57
2023-04-18T12:13:15.089Z,2.40
2023-04-18T12:15:44.663Z,3.30
2023-04-18T12:18:13.527Z,2.10
2023-04-18T12:20:47.301Z,2.30
2023-04-18T12:23:37.162Z,2.60
2023-04-18T12:26:08.265Z,1.83
2023-04-18T12:28:35.370Z,2.27
2023-04-18T12:31:02.691Z,3.13
2023-04-18T12:33:30.431Z,2.90
2023-04-18T12:35:57.317Z,1.70
2023-04-18T12:38:24.081Z,2.70
2023-04-18T12:40:51.248Z,1.50
2023-04-18T12:43:18.165Z,2.80
2023-04-18T12:45:45.684Z,1.73
2023-04-18T12:48:12.440Z,2.53
2023-04-18T12:50:38.926Z,1.67
2023-04-18T12:53:05.865Z,1.93
2023-04-18T12:55:32.537Z,3.00
2023-04-18T12:57:59.031Z,1.90
2023-04-18T13:00:27.535Z,1.70
2023-04-18T13:02:54.264Z,1.97
2023-04-18T13:05:22.437Z,1.60
2023-04-18T13:07:49.711Z,1.43
2023-04-18T13:10:18.281Z,1.33
2023-04-18T13:12:45.198Z,1.47
2023-04-18T13:15:11.724Z,1.43
2023-04-18T13:17:41.113Z,1.70
2023-04-18T13:20:12.376Z,1.33
2023-04-18T13:22:40.186Z,2.17
2023-04-18T13:25:08.202Z,1.43
2023-04-18T13:27:34.676Z,1.53
2023-04-18T13:30:01.333Z,1.53
2023-04-18T13:32:27.894Z,1.17
2023-04-18T13:34:56.054Z,2.00
2023-04-18T13:37:23.064Z,1.60
2023-04-18T13:39:49.634Z,1.37
2023-04-18T13:42:16.447Z,1.87
2023-04-18T13:44:42.910Z,1.50
2023-04-18T13:47:09.371Z,1.57
2023-04-18T13:49:36.397Z,2.20
2023-04-18T13:52:03.518Z,2.20
2023-04-18T13:54:31.927Z,2.50
2023-04-18T13:57:02.164Z,2.07
2023-04-18T13:59:31.895Z,1.67
2023-04-18T14:01:58.647Z,2.13
2023-04-18T14:04:25.547Z,2.03
2023-04-18T14:06:52.244Z,1.97
2023-04-18T14:09:18.821Z,2.10
2023-04-18T14:11:46.669Z,2.60
2023-04-18T14:14:13.404Z,2.40
2023-04-18T14:16:40.228Z,2.87
2023-04-18T14:19:07.082Z,3.97
2023-04-18T14:21:33.523Z,2.10
2023-04-18T14:24:00.448Z,2.77
2023-04-18T14:26:27.190Z,4.00
2023-04-18T14:28:53.642Z,3.53
2023-04-18T14:31:20.331Z,2.87
2023-04-18T14:33:46.806Z,2.30
2023-04-18T14:36:15.181Z,2.53
2023-04-18T14:38:42.075Z,2.47
2023-04-18T14:41:08.558Z,1.87
2023-04-18T14:43:35.220Z,2.20
2023-04-18T14:46:01.833Z,2.17
2023-04-18T14:48:28.505Z,4.37
2023-04-18T14:50:59.706Z,2.60
2023-04-18T14:53:27.027Z,2.30
2023-04-18T14:55:53.562Z,2.30
2023-04-18T14:58:20.425Z,2.70
2023-04-18T15:00:46.912Z,2.17
2023-04-18T15:03:13.534Z,1.63
2023-04-18T15:05:42.933Z,1.80
2023-04-18T15:08:10.953Z,2.07
2023-04-18T15:10:38.201Z,2.27
2023-04-18T15:13:04.739Z,1.80
2023-04-18T15:15:31.348Z,2.20
2023-04-18T15:17:57.852Z,1.67
2023-04-18T15:20:24.371Z,1.67
2023-04-18T15:22:50.788Z,1.17
2023-04-18T15:25:17.558Z,1.80
2023-04-18T15:27:44.060Z,1.43
2023-04-18T15:30:12.040Z,1.90
2023-04-18T15:32:41.961Z,1.60
2023-04-18T15:35:09.875Z,1.00
2023-04-18T15:37:36.721Z,1.43
2023-04-18T15:40:06.552Z,1.30
2023-04-18T15:42:33.775Z,1.13
2023-04-18T15:45:00.299Z,1.87
2023-04-18T15:47:27.099Z,2.27
2023-04-18T15:49:53.645Z,1.77
2023-04-18T15:52:20.105Z,1.23
2023-04-18T15:54:46.594Z,2.43
2023-04-18T15:57:13.071Z,1.00
2023-04-18T15:59:39.560Z,2.47
2023-04-18T16:02:08.308Z,1.47
2023-04-18T16:04:35.052Z,1.20
2023-04-18T16:07:01.590Z,2.23
2023-04-18T16:09:28.229Z,1.10
2023-04-18T16:11:54.745Z,1.80
2023-04-18T16:14:21.440Z,2.47
2023-04-18T16:16:48.239Z,1.27
2023-04-18T16:19:17.870Z,2.27
2023-04-18T16:21:46.871Z,1.20
2023-04-18T16:24:15.297Z,2.53
2023-04-18T16:26:41.908Z,1.37
2023-04-18T16:29:08.337Z,1.40
2023-04-18T16:31:34.838Z,1.80
2023-04-18T16:34:03.066Z,1.37
2023-04-18T16:36:29.531Z,2.67
2023-04-18T16:38:55.998Z,2.13
2023-04-18T16:41:22.510Z,1.60
2023-04-18T16:43:49.025Z,1.93
2023-04-18T16:46:15.648Z,1.60
2023-04-18T16:48:42.162Z,2.43
2023-04-18T16:51:08.600Z,2.70
2023-04-18T16:53:35.974Z,2.40
2023-04-18T16:56:03.232Z,2.27
2023-04-18T16:58:29.841Z,2.57
2023-04-18T17:00:56.331Z,3.43
2023-04-18T17:03:22.884Z,2.00
2023-04-18T17:05:49.400Z,1.90
2023-04-18T17:08:16.545Z,2.40
2023-04-18T17:10:42.990Z,2.23
2023-04-18T17:13:09.441Z,2.40
2023-04-18T17:15:36.469Z,2.90
2023-04-18T17:18:03.017Z,3.03
2023-04-18T17:20:29.529Z,3.03
2023-04-18T17:22:57.170Z,3.70
2023-04-18T17:25:23.598Z,2.80
2023-04-18T17:27:50.139Z,3.03
2023-04-18T17:30:16.698Z,3.60
2023-04-18T17:32:45.898Z,3.80
2023-04-18T17:35:14.506Z,3.20
2023-04-18T17:37:42.385Z,5.73
2023-04-18T17:40:10.070Z,3.10
2023-04-18T17:42:36.867Z,5.17
2023-04-18T17:45:05.059Z,4.33
2023-04-18T17:47:33.420Z,3.60
2023-04-18T17:50:03.997Z,3.37
2023-04-18T17:52:30.608Z,5.90
2023-04-18T17:54:57.234Z,5.57
2023-04-18T17:57:25.900Z,4.93
2023-04-18T17:59:52.657Z,5.10
2023-04-18T18:02:19.466Z,5.03
2023-04-18T18:04:46.921Z,3.70
2023-04-18T18:07:13.424Z,4.70
2023-04-18T18:09:41.568Z,4.23
2023-04-18T18:12:09.774Z,4.00
2023-04-18T18:14:36.436Z,4.33
2023-04-18T18:17:03.182Z,4.33
2023-04-18T18:19:29.744Z,5.80
2023-04-18T18:21:56.260Z,4.57
2023-04-18T18:24:25.062Z,4.57
2023-04-18T18:26:51.868Z,6.37
2023-04-18T18:29:19.263Z,4.87
2023-04-18T18:31:45.895Z,4.07
2023-04-18T18:34:12.523Z,4.13
2023-04-18T18:36:40.096Z,7.50
2023-04-18T18:39:06.854Z,5.77
2023-04-18T18:41:33.384Z,6.10
2023-04-18T18:43:59.967Z,4.53
2023-04-18T18:46:27.181Z,6.00
2023-04-18T18:48:53.734Z,4.10
2023-04-18T18:51:20.254Z,5.80
2023-04-18T18:53:46.711Z,4.43
2023-04-18T18:56:13.244Z,5.37
2023-04-18T18:58:40.364Z,5.03
2023-04-18T19:01:06.906Z,5.97
2023-04-18T19:03:34.626Z,5.23
2023-04-18T19:06:03.793Z,6.80
2023-04-18T19:08:31.085Z,5.67
2023-04-18T19:10:57.606Z,7.40
2023-04-18T19:13:24.322Z,5.73
2023-04-18T19:15:51.537Z,5.20
2023-04-18T19:18:19.909Z,6.37
2023-04-18T19:20:46.765Z,5.50
2023-04-18T19:23:13.233Z,5.40
2023-04-18T19:25:39.838Z,5.37
2023-04-18T19:28:06.525Z,6.10
2023-04-18T19:30:33.031Z,6.70
2023-04-18T19:32:59.595Z,7.30
2023-04-18T19:35:26.186Z,5.80
2023-04-18T19:37:55.807Z,7.50
2023-04-18T19:40:23.618Z,6.90
2023-04-18T19:42:50.118Z,6.07
2023-04-18T19:45:16.610Z,5.70
2023-04-18T19:47:44.249Z,5.77
2023-04-18T19:50:11.421Z,5.33
2023-04-18T19:52:37.905Z,5.93
2023-04-18T19:55:04.704Z,6.20
2023-04-18T19:57:31.205Z,8.10
2023-04-18T19:59:57.648Z,7.17
2023-04-18T20:02:24.291Z,13.40
2023-04-18T20:04:51.174Z,7.93
2023-04-18T20:07:17.930Z,6.80
2023-04-18T20:09:44.409Z,6.73
2023-04-18T20:12:10.937Z,6.00
2023-04-18T20:14:37.407Z,5.90
2023-04-18T20:17:03.897Z,5.30
2023-04-18T20:19:30.853Z,10.43
2023-04-18T20:21:57.342Z,8.30
2023-04-18T20:24:27.807Z,6.87
2023-04-18T20:26:54.629Z,6.57
2023-04-18T20:29:21.198Z,8.57
2023-04-18T20:31:47.631Z,7.17
2023-04-18T20:34:14.147Z,8.00
2023-04-18T20:36:41.447Z,8.80
2023-04-18T20:39:08.856Z,7.90
2023-04-18T20:41:36.758Z,7.97
2023-04-18T20:44:05.297Z,8.90
2023-04-18T20:46:33.273Z,8.57
2023-04-18T20:48:59.917Z,8.40
2023-04-18T20:51:28.207Z,7.70
2023-04-18T20:53:54.772Z,9.87
2023-04-18T20:56:21.946Z,7.60
2023-04-18T20:58:48.764Z,7.90
2023-04-18T21:01:15.467Z,7.00
2023-04-18T21:03:42.278Z,8.63
2023-04-18T21:06:08.860Z,7.43
2023-04-18T21:08:37.770Z,8.30
2023-04-18T21:11:04.226Z,6.20
2023-04-18T21:13:34.196Z,6.93
2023-04-18T21:16:03.240Z,14.60
2023-04-18T21:18:30.120Z,9.97
2023-04-18T21:20:56.584Z,9.30
2023-04-18T21:23:23.541Z,15.90
2023-04-18T21:25:50.380Z,7.20
2023-04-18T21:28:19.796Z,9.03
2023-04-18T21:30:46.816Z,7.63
2023-04-18T21:33:13.735Z,7.77
2023-04-18T21:35:40.250Z,10.43
2023-04-18T21:38:06.750Z,9.73
2023-04-18T21:40:33.344Z,8.70
2023-04-18T21:42:59.804Z,8.97
2023-04-18T21:45:26.379Z,8.40
2023-04-18T21:47:52.989Z,12.00
2023-04-18T21:50:20.211Z,8.53
2023-04-18T21:52:46.668Z,8.30
2023-04-18T21:55:13.129Z,10.83
2023-04-18T21:57:39.588Z,9.03
2023-04-18T22:00:10.597Z,9.00
2023-04-18T22:02:39.613Z,9.43
2023-04-18T22:05:07.562Z,9.73
2023-04-18T22:07:40.811Z,9.07
2023-04-18T22:10:13.299Z,8.03
2023-04-18T22:12:39.793Z,9.63
2023-04-18T22:15:06.536Z,9.10
2023-04-18T22:17:34.761Z,9.73
2023-04-18T22:20:01.211Z,10.53
2023-04-18T22:22:27.772Z,9.10
2023-04-18T22:24:54.259Z,10.60
2023-04-18T22:27:20.695Z,9.87
2023-04-18T22:29:47.132Z,10.83
2023-04-18T22:32:13.642Z,10.63
2023-04-18T22:34:40.505Z,14.33
2023-04-18T22:37:06.942Z,9.90
2023-04-18T22:39:33.449Z,10.20
2023-04-18T22:41:59.940Z,7.93
2023-04-18T22:44:26.425Z,11.13
2023-04-18T22:46:54.539Z,8.40
2023-04-18T22:49:22.137Z,8.70
2023-04-18T22:51:48.651Z,10.57
2023-04-18T22:54:15.506Z,10.47
2023-04-18T22:56:42.465Z,8.33
2023-04-18T22:59:08.916Z,7.13
2023-04-18T23:01:35.417Z,10.20
2023-04-18T23:04:02.049Z,8.90
2023-04-18T23:06:29.878Z,8.03
2023-04-18T23:08:56.458Z,10.83
2023-04-18T23:11:22.927Z,9.67
2023-04-18T23:13:49.373Z,8.13
2023-04-18T23:16:15.950Z,7.27
2023-04-18T23:18:42.449Z,9.77
2023-04-18T23:21:08.932Z,9.67
2023-04-18T23:23:35.409Z,8.97
2023-04-18T23:26:01.858Z,8.57
2023-04-18T23:28:28.343Z,9.50
2023-04-18T23:30:54.824Z,13.63
2023-04-18T23:33:21.278Z,10.73
2023-04-18T23:35:47.738Z,9.10
2023-04-18T23:38:14.168Z,9.70
2023-04-18T23:40:40.654Z,13.80
2023-04-18T23:43:07.094Z,9.60
2023-04-18T23:45:33.531Z,10.67
2023-04-18T23:48:00.066Z,10.50
2023-04-18T23:50:26.907Z,13.00
2023-04-18T23:52:53.416Z,9.83
2023-04-18T23:55:19.947Z,8.33
2023-04-18T23:57:46.395Z,11.13
